girlgames4u.com alexa rank chart, girlgames4u.com alexa rank daily changes

girlgames4u.com alexa rank chart, girlgames4u.com alexa rank daily changes

girlgames4u.com
Actual rank:
505 299

RANK HISTORY

Date Rank Diff
2017/12/11 505 299 +6 432
2017/12/10 498 867 -4 547
2017/12/09 503 414 -15 752
2017/12/08 519 166 +25 112
2017/12/07 494 054 +10 790
2017/12/06 483 264 +7 531
2017/12/05 475 733 -3 034
2017/12/04 478 767 -13 535
2017/12/03 492 302 +4 463
2017/12/02 487 839 +1 368
2017/12/01 486 471 -23 697
2017/11/30 510 168 -7 271
2017/11/29 517 439 -6 850
2017/11/28 524 289 -7 664
2017/11/27 531 953 -13 175
2017/11/26 545 128 +1 676
2017/11/25 543 452 +4
2017/11/24 543 448 -8 603
2017/11/23 552 051 +504
2017/11/22 551 547 -7 223
2017/11/21 558 770 +39 655
2017/11/20 519 115 -6 656
2017/11/19 525 771 -25 109
2017/11/18 550 880 -21 051
2017/11/17 571 931 +4 452
2017/11/16 567 479 -24 022
2017/11/15 591 501 +4 896
2017/11/14 586 605 +1 018
2017/11/13 585 587 -22 790
2017/11/12 608 377 -1 480
2017/11/11 609 857 +25 228
2017/11/10 584 629 +22 468
2017/11/09 562 161 +23 937
2017/11/08 538 224 -20 687
2017/11/07 558 911 -6 881
2017/11/06 565 792 -5 794
2017/11/05 571 586 +19 439
2017/11/04 552 147 +3 920
2017/11/03 548 227 -6 514
2017/11/02 554 741 -1 319
2017/11/01 556 060 +12 014
2017/10/31 544 046 +12 972
2017/10/30 531 074 -2 518
2017/10/29 533 592 +14 036
2017/10/28 519 556 -4 601
2017/10/27 524 157 +5 715
2017/10/26 518 442 +1 944
2017/10/25 516 498 +21 748
2017/10/24 494 750 -14 471
2017/10/23 509 221 +11 249
2017/10/22 497 972 +8 204
2017/10/21 489 768 -28 866
2017/10/20 518 634 +10 738
2017/10/19 507 896 +20 622
2017/10/18 487 274 +10 383
2017/10/17 476 891 +4 972
2017/10/16 471 919 +3 824
2017/10/14 468 095 +7 738
2017/10/13 460 357 +877
2017/10/12 459 480

WIDGET FOR YOUR SITE

DOMAINS WITH THE NEAREST RANK

Domain Rank
zen-on.co.jp 505 294
rh.net.sa 505 295
icitukif.com 505 296
car-free.it 505 297
conjugation.org 505 298
girlgames4u.com 505 299
psp.ge 505 300
pdou.ru 505 301
machetempofa.it 505 302
membranka.ru 505 303
regentantiques.com 505 304

DOMAINS WITH THE NEAREST RANK BY TLD .com

Domain Rank
games1.com 505 289
vasyadiagnost.com 505 291
gironet.com 505 292
knotions.com 505 293
icitukif.com 505 296
girlgames4u.com 505 299
regentantiques.com 505 304
techgide.com 505 307
gaudi-ds.com 505 310
modsmega.com 505 312
giftrunk.com 505 313